Aviation Digital Data Service (ADDS)

Output produced by METARs form (0733 UTC 18 October 2017)
found at http://www.aviationweather.gov/adds/metars/
 
KHLG 180653Z AUTO 20003KT 10SM 08/03 A3030 RMK AO2 SLP265 T00830028 $
KHLG 180553Z AUTO 18006KT 10SM CLR 09/03 A3031 RMK AO2 SLP268 T00940028 10122 20089 51005
KHLG 180453Z AUTO 16005KT 10SM CLR 09/03 A3031 RMK AO2 SLP267 T00940028 401720017
KHLG 180353Z AUTO 18006KT 10SM CLR 09/03 A3030 RMK AO2 SLP266 T00940033
KHLG 180253Z AUTO 20005KT 10SM CLR 10/03 A3030 RMK AO2 SLP265 T01000028 53009
KHLG 180153Z 19007KT 10SM CLR 11/03 A3028 RMK AO2 SLP262 T01060028
KHLG 180053Z 19007KT 10SM CLR 11/03 A3027 RMK AO2 SLP260 T01110033
KHLG 172353Z 20007KT 10SM CLR 12/03 A3027 RMK AO2 SLP258 T01220028 10172 20117 53001
KHLG 172253Z 21006KT 10SM CLR 13/03 A3026 RMK AO2 SLP254 T01330028
KHLG 172153Z 22010KT 10SM CLR 16/03 A3025 RMK AO2 SLP252 T01560028
KHLG 172053Z 24008KT 10SM CLR 17/03 A3027 RMK AO2 SLP255 T01670028 56013
KHLG 171953Z 26010KT 10SM CLR 17/02 A3027 RMK AO2 SLP257 T01670022
KHLG 171853Z 28008KT 10SM CLR 17/03 A3029 RMK AO2 SLP261 T01670028
KHLG 171753Z 25010KT 10SM CLR 16/03 A3031 RMK AO2 SLP268 T01560028 10156 20028 58019
KHLG 171653Z 23008KT 10SM CLR 14/03 A3033 RMK AO2 SLP278 T01440033
KHLG 171553Z 21007KT 10SM CLR 13/04 A3035 RMK AO2 SLP284 T01330044
KHLG 171453Z 19007KT 10SM CLR 11/04 A3036 RMK AO2 SLP290 T01060039 50005
KHLG 171353Z 21003KT 10SM CLR 07/03 A3037 RMK AO2 SLP290 T00720033
KHLG 171253Z 18003KT 10SM CLR 04/03 A3037 RMK AO2 SLP293 T00440028
KHLG 171153Z 00000KT 10SM CLR 03/02 A3035 RMK AO2 SLP286 70002 T00330022 10050 20017 51010
KHLG 171115Z 00000KT 5SM R03/4000VP6000FT BR FEW001 02/01 A3034 RMK AO2 T00220011
KHLG 171103Z 00000KT 2SM R03/1200V4500FT BR SCT001 03/01 A3035 RMK AO2 T00280011
KHLG 171100Z 00000KT 1 3/4SM R03/1200V1800FT BR SCT001 03/01 A3035 RMK AO2 T00280011
KHLG 171053Z 00000KT 2 1/2SM R03/0800V1200FT BR BKN001 03/01 A3035 RMK AO2 SLP285 T00280011
KHLG 171038Z AUTO 00000KT 10SM R03/1000V1800FT FEW001 03/01 A3034 RMK AO2 T00280011
KHLG 170953Z AUTO 00000KT 10SM CLR 02/01 A3034 RMK AO2 SLP281 T00220011
KHLG 170853Z AUTO 17003KT 10SM CLR 03/02 A3032 RMK AO2 SLP274 T00330017 51006
KHLG 170753Z AUTO 00000KT 10SM CLR 03/01 A3031 RMK AO2 SLP273 T00330011